createdAt,value
2017-01-04T00:00:59.888Z,0
2017-01-04T00:02:10.239Z,0
2017-01-04T00:03:20.476Z,0
2017-01-04T00:04:30.311Z,0
2017-01-04T00:05:40.583Z,0
2017-01-04T00:06:50.423Z,0
2017-01-04T00:08:00.692Z,0
2017-01-04T00:09:10.524Z,0
2017-01-04T00:10:20.801Z,0
2017-01-04T00:11:30.268Z,0
2017-01-04T00:12:40.503Z,0
2017-01-04T00:13:49.943Z,0
2017-01-04T00:15:00.228Z,0
2017-01-04T00:16:10.106Z,0
2017-01-04T00:17:19.940Z,0
2017-01-04T00:18:29.828Z,0
2017-01-04T00:19:39.276Z,0
2017-01-04T00:20:49.157Z,0
2017-01-04T00:21:59.411Z,0
2017-01-04T00:23:09.272Z,0
2017-01-04T00:24:19.563Z,0
2017-01-04T00:25:29.846Z,0
2017-01-04T00:26:40.132Z,0
2017-01-04T00:27:50.031Z,0
2017-01-04T00:29:00.274Z,0
2017-01-04T00:30:10.575Z,0
2017-01-04T00:31:19.998Z,0
2017-01-04T00:32:30.262Z,0
2017-01-04T00:33:39.700Z,0
2017-01-04T00:34:49.622Z,0
2017-01-04T00:35:59.909Z,0
2017-01-04T00:37:10.175Z,0
2017-01-04T00:38:20.016Z,0
2017-01-04T00:39:29.869Z,0
2017-01-04T00:40:39.296Z,0
2017-01-04T00:41:49.165Z,0
2017-01-04T00:42:58.724Z,0
2017-01-04T00:44:08.570Z,0
2017-01-04T00:45:18.809Z,0
2017-01-04T00:46:29.055Z,0
2017-01-04T00:47:38.893Z,0
2017-01-04T00:48:48.373Z,0
2017-01-04T00:49:58.774Z,0
2017-01-04T00:51:09.042Z,0
2017-01-04T00:52:19.277Z,0
2017-01-04T00:53:29.518Z,0
2017-01-04T00:54:39.447Z,0
2017-01-04T00:55:49.695Z,0
2017-01-04T00:57:00.038Z,0
2017-01-04T00:58:09.071Z,0
2017-01-04T00:59:19.306Z,0
2017-01-04T01:00:29.536Z,0
2017-01-04T01:01:39.405Z,0
2017-01-04T01:02:49.639Z,0
2017-01-04T01:03:59.119Z,0
2017-01-04T01:05:08.978Z,0
2017-01-04T01:06:19.274Z,0
2017-01-04T01:07:29.570Z,0
2017-01-04T01:08:38.999Z,0
2017-01-04T01:09:49.228Z,0
2017-01-04T01:10:59.588Z,0
2017-01-04T01:12:09.911Z,0
2017-01-04T01:13:20.181Z,0
2017-01-04T01:14:30.441Z,0
2017-01-04T01:15:40.752Z,0
2017-01-04T01:16:51.061Z,0
2017-01-04T01:18:01.451Z,0
2017-01-04T01:19:11.745Z,0
2017-01-04T01:20:21.628Z,0
2017-01-04T01:21:31.910Z,0
2017-01-04T01:22:41.789Z,0
2017-01-04T01:23:52.175Z,0
2017-01-04T01:25:02.508Z,0
2017-01-04T01:26:11.956Z,0
2017-01-04T01:27:21.778Z,0
2017-01-04T01:28:31.681Z,0
2017-01-04T01:29:41.935Z,0
2017-01-04T01:30:52.175Z,0
2017-01-04T01:32:02.407Z,0
2017-01-04T01:33:12.343Z,0
2017-01-04T01:34:21.781Z,0
2017-01-04T01:35:32.370Z,0
2017-01-04T01:36:42.600Z,0
2017-01-04T01:37:52.833Z,0
2017-01-04T01:39:03.106Z,0
2017-01-04T01:40:13.333Z,0
2017-01-04T01:41:22.776Z,0
2017-01-04T01:42:32.210Z,0
2017-01-04T01:43:42.053Z,0
2017-01-04T01:44:52.309Z,0
2017-01-04T01:46:01.807Z,0
2017-01-04T01:47:11.652Z,0
2017-01-04T01:48:21.092Z,0
2017-01-04T01:49:31.331Z,0
2017-01-04T01:50:41.589Z,0
2017-01-04T01:51:51.806Z,0
2017-01-04T01:53:02.046Z,0
2017-01-04T01:54:11.911Z,0
2017-01-04T01:55:21.880Z,0
2017-01-04T01:56:31.315Z,0
2017-01-04T01:57:41.137Z,0
2017-01-04T01:58:51.374Z,0
2017-01-04T02:00:01.679Z,0
2017-01-04T02:01:11.960Z,0
2017-01-04T02:02:22.214Z,0
2017-01-04T02:03:32.465Z,0
2017-01-04T02:04:42.353Z,0
2017-01-04T02:05:52.257Z,0
2017-01-04T02:07:02.226Z,0
2017-01-04T02:08:12.497Z,0
2017-01-04T02:09:22.744Z,0
2017-01-04T02:10:32.639Z,0
2017-01-04T02:11:42.946Z,0
2017-01-04T02:12:53.190Z,0
2017-01-04T02:14:02.859Z,0
2017-01-04T02:15:12.751Z,0
2017-01-04T02:16:23.014Z,0
2017-01-04T02:17:32.953Z,0
2017-01-04T02:18:43.257Z,0
2017-01-04T02:19:53.240Z,0
2017-01-04T02:21:02.739Z,0
2017-01-04T02:22:12.580Z,0
2017-01-04T02:23:54.182Z,0
2017-01-04T02:25:04.450Z,0
2017-01-04T02:26:14.767Z,0
2017-01-04T02:27:24.689Z,0
2017-01-04T02:28:34.942Z,0
2017-01-04T02:29:44.782Z,0
2017-01-04T02:30:54.609Z,0
2017-01-04T02:32:04.473Z,0
2017-01-04T02:33:14.757Z,0
2017-01-04T02:34:25.224Z,0
2017-01-04T02:35:35.701Z,0
2017-01-04T02:36:45.553Z,0
2017-01-04T02:37:55.377Z,0
2017-01-04T02:39:05.885Z,0
2017-01-04T02:40:15.791Z,0
2017-01-04T02:41:25.681Z,0
2017-01-04T02:42:36.068Z,0
2017-01-04T02:43:46.400Z,0
2017-01-04T02:44:56.686Z,0
2017-01-04T02:46:06.940Z,0
2017-01-04T02:47:16.913Z,0
2017-01-04T02:48:27.149Z,0
2017-01-04T02:49:37.468Z,0
2017-01-04T02:50:47.299Z,0
2017-01-04T02:51:57.521Z,0
2017-01-04T02:53:07.403Z,0
2017-01-04T02:54:17.285Z,0
2017-01-04T02:55:27.117Z,0
2017-01-04T02:56:37.632Z,0
2017-01-04T02:57:47.891Z,0
2017-01-04T02:58:58.189Z,0
2017-01-04T03:00:08.448Z,0
2017-01-04T03:01:18.298Z,0
2017-01-04T03:02:28.178Z,0
2017-01-04T03:03:38.029Z,0
2017-01-04T03:04:47.886Z,0
2017-01-04T03:05:58.108Z,0
2017-01-04T03:07:08.349Z,0
2017-01-04T03:08:18.672Z,0
2017-01-04T03:09:28.902Z,0
2017-01-04T03:10:38.736Z,0
2017-01-04T03:11:48.566Z,0
2017-01-04T03:12:58.860Z,0
2017-01-04T03:14:08.282Z,0
2017-01-04T03:15:18.561Z,0
2017-01-04T03:16:28.439Z,0
2017-01-04T03:17:38.338Z,0
2017-01-04T03:18:48.610Z,0
2017-01-04T03:19:58.881Z,0
2017-01-04T03:21:09.124Z,0
2017-01-04T03:22:19.363Z,0
2017-01-04T03:23:29.223Z,0
2017-01-04T03:24:38.645Z,0
2017-01-04T03:25:48.493Z,0
2017-01-04T03:26:57.945Z,0
2017-01-04T03:28:08.235Z,0
2017-01-04T03:29:18.652Z,0
2017-01-04T03:30:28.511Z,0
2017-01-04T03:31:37.995Z,0
2017-01-04T03:32:48.265Z,0
2017-01-04T03:33:58.211Z,0
2017-01-04T03:35:07.647Z,0
2017-01-04T03:36:17.097Z,0
2017-01-04T03:37:26.540Z,0
2017-01-04T03:38:36.511Z,0
2017-01-04T03:39:45.941Z,0
2017-01-04T03:40:56.228Z,0
2017-01-04T03:42:06.055Z,0
2017-01-04T03:43:15.103Z,0
2017-01-04T03:44:25.435Z,0
2017-01-04T03:45:35.301Z,0
2017-01-04T03:46:45.605Z,0
2017-01-04T03:47:55.033Z,0
2017-01-04T03:49:04.966Z,0
2017-01-04T03:50:15.277Z,0
2017-01-04T03:51:25.249Z,0
2017-01-04T03:52:35.575Z,0
2017-01-04T03:53:45.977Z,0
2017-01-04T03:54:55.832Z,0
2017-01-04T03:56:05.289Z,0
2017-01-04T03:57:14.720Z,0
2017-01-04T03:58:25.008Z,0
2017-01-04T03:59:35.466Z,0
2017-01-04T04:00:45.320Z,0
2017-01-04T04:01:55.550Z,0
2017-01-04T04:03:05.893Z,0
2017-01-04T04:04:16.227Z,0
2017-01-04T04:05:26.539Z,0
2017-01-04T04:06:36.824Z,0
2017-01-04T04:07:47.044Z,0
2017-01-04T04:08:57.316Z,0
2017-01-04T04:10:07.590Z,0
2017-01-04T04:11:17.453Z,0
2017-01-04T04:12:27.388Z,0
2017-01-04T04:13:36.838Z,0
2017-01-04T04:14:46.349Z,0
2017-01-04T04:15:56.703Z,0
2017-01-04T04:17:06.533Z,0
2017-01-04T04:18:16.390Z,0
2017-01-04T04:19:26.639Z,0
2017-01-04T04:20:36.900Z,0
2017-01-04T04:21:46.822Z,0
2017-01-04T04:22:56.648Z,0
2017-01-04T04:24:06.483Z,0
2017-01-04T04:25:16.746Z,0
2017-01-04T04:26:26.635Z,0
2017-01-04T04:27:36.942Z,0
2017-01-04T04:28:46.770Z,0
2017-01-04T04:29:56.619Z,0
2017-01-04T04:31:06.848Z,0
2017-01-04T04:32:16.716Z,0
2017-01-04T04:33:27.004Z,0
2017-01-04T04:34:36.853Z,0
2017-01-04T04:35:47.095Z,0
2017-01-04T04:36:56.132Z,0
2017-01-04T04:38:06.492Z,0
2017-01-04T04:39:16.746Z,0
2017-01-04T04:40:27.040Z,0
2017-01-04T04:41:36.981Z,0
2017-01-04T04:42:46.892Z,0
2017-01-04T04:43:57.126Z,0
2017-01-04T04:45:06.997Z,0
2017-01-04T04:46:16.629Z,0
2017-01-04T04:47:26.474Z,0
2017-01-04T04:48:36.315Z,0
2017-01-04T04:49:46.182Z,0
2017-01-04T04:50:56.415Z,0
2017-01-04T04:52:06.753Z,0
2017-01-04T04:53:17.074Z,0
2017-01-04T04:54:27.354Z,0
2017-01-04T04:55:36.802Z,0
2017-01-04T04:56:47.071Z,0
2017-01-04T04:57:57.323Z,0
2017-01-04T04:59:06.773Z,0
2017-01-04T05:00:16.256Z,0
2017-01-04T05:01:26.113Z,0
2017-01-04T05:02:36.372Z,0
2017-01-04T05:03:46.351Z,0
2017-01-04T05:04:56.641Z,0
2017-01-04T05:06:06.926Z,0
2017-01-04T05:07:16.766Z,0
2017-01-04T05:08:26.592Z,0
2017-01-04T05:09:36.429Z,0
2017-01-04T05:10:46.657Z,0
2017-01-04T05:11:57.061Z,0
2017-01-04T05:13:07.368Z,0
2017-01-04T05:14:16.439Z,0
2017-01-04T05:15:26.689Z,0
2017-01-04T05:16:37.077Z,0
2017-01-04T05:17:46.582Z,0
2017-01-04T05:18:56.016Z,0
2017-01-04T05:20:06.244Z,0
2017-01-04T05:21:16.133Z,0
2017-01-04T05:22:26.504Z,0
2017-01-04T05:23:36.423Z,0
2017-01-04T05:24:46.739Z,0
2017-01-04T05:25:55.773Z,0
2017-01-04T05:27:05.705Z,0
2017-01-04T05:28:15.997Z,0
2017-01-04T05:29:25.470Z,0
2017-01-04T05:30:35.289Z,0
2017-01-04T05:31:45.124Z,0
2017-01-04T05:32:55.380Z,0
2017-01-04T05:34:05.655Z,0
2017-01-04T05:35:15.949Z,0
2017-01-04T05:36:25.777Z,0
2017-01-04T05:37:36.071Z,0
2017-01-04T05:38:46.419Z,0
2017-01-04T05:39:56.660Z,0
2017-01-04T05:41:06.926Z,0
2017-01-04T05:42:16.474Z,0
2017-01-04T05:43:26.726Z,0
2017-01-04T05:44:36.159Z,0
2017-01-04T05:45:46.426Z,0
2017-01-04T05:46:56.267Z,0
2017-01-04T05:48:06.508Z,0
2017-01-04T05:49:16.777Z,0
2017-01-04T05:50:26.410Z,0
2017-01-04T05:51:36.677Z,0
2017-01-04T05:52:46.514Z,0
2017-01-04T05:53:56.340Z,0
2017-01-04T05:55:06.572Z,0
2017-01-04T05:56:16.501Z,0
2017-01-04T05:57:26.342Z,0
2017-01-04T05:58:36.570Z,0
2017-01-04T05:59:46.410Z,0
2017-01-04T06:00:56.311Z,0
2017-01-04T06:02:06.579Z,0
2017-01-04T06:03:16.958Z,0
2017-01-04T06:04:26.931Z,0
2017-01-04T06:05:37.176Z,0
2017-01-04T06:06:47.245Z,0
2017-01-04T06:07:56.733Z,0
2017-01-04T06:09:07.011Z,0
2017-01-04T06:10:17.255Z,0
2017-01-04T06:11:27.491Z,0
2017-01-04T06:12:37.806Z,0
2017-01-04T06:13:48.155Z,0
2017-01-04T06:14:57.571Z,0
2017-01-04T06:16:07.857Z,0
2017-01-04T06:17:18.102Z,0
2017-01-04T06:18:27.985Z,0
2017-01-04T06:19:37.018Z,0
2017-01-04T06:20:46.934Z,0
2017-01-04T06:21:57.213Z,0
2017-01-04T06:23:07.519Z,0
2017-01-04T06:24:17.367Z,0
2017-01-04T06:25:27.643Z,0
2017-01-04T06:26:37.479Z,0
2017-01-04T06:27:47.799Z,0
2017-01-04T06:28:57.328Z,0
2017-01-04T06:30:07.586Z,0
2017-01-04T06:31:17.843Z,0
2017-01-04T06:32:27.707Z,0
2017-01-04T06:33:37.936Z,0
2017-01-04T06:34:48.163Z,0
2017-01-04T06:35:58.454Z,0
2017-01-04T06:37:07.908Z,0
2017-01-04T06:38:17.341Z,0
2017-01-04T06:39:27.600Z,0
2017-01-04T06:40:37.897Z,0
2017-01-04T06:41:48.206Z,0
2017-01-04T06:42:58.054Z,0
2017-01-04T06:44:07.884Z,0
2017-01-04T06:45:17.853Z,0
2017-01-04T06:46:28.152Z,4
2017-01-04T06:47:38.413Z,0
2017-01-04T06:48:48.657Z,4
2017-01-04T06:49:58.907Z,4
2017-01-04T06:51:08.825Z,4
2017-01-04T06:52:19.142Z,4
2017-01-04T06:53:29.423Z,8
2017-01-04T06:54:39.328Z,12
2017-01-04T06:55:49.166Z,12
2017-01-04T06:56:59.039Z,16
2017-01-04T06:58:09.317Z,16
2017-01-04T06:59:19.179Z,24
2017-01-04T07:00:29.513Z,28
2017-01-04T07:01:39.335Z,28
2017-01-04T07:02:49.613Z,32
2017-01-04T07:03:59.490Z,32
2017-01-04T07:05:09.720Z,44
2017-01-04T07:06:19.665Z,52
2017-01-04T07:07:29.511Z,52
2017-01-04T07:08:39.776Z,64
2017-01-04T07:09:49.632Z,88
2017-01-04T07:10:59.456Z,92
2017-01-04T07:12:09.299Z,96
2017-01-04T07:13:19.126Z,100
2017-01-04T07:14:28.988Z,108
2017-01-04T07:15:38.426Z,100
2017-01-04T07:16:48.699Z,96
2017-01-04T07:17:58.528Z,104
2017-01-04T07:19:08.793Z,116
2017-01-04T07:20:19.069Z,116
2017-01-04T07:21:28.903Z,128
2017-01-04T07:22:38.351Z,136
2017-01-04T07:23:48.285Z,132
2017-01-04T07:24:58.514Z,120
2017-01-04T07:26:08.405Z,88
2017-01-04T07:27:18.328Z,92
2017-01-04T07:28:28.614Z,104
2017-01-04T07:29:38.923Z,100
2017-01-04T07:30:49.147Z,120
2017-01-04T07:31:58.662Z,136
2017-01-04T07:33:08.503Z,148
2017-01-04T07:34:18.373Z,188
2017-01-04T07:35:27.809Z,248
2017-01-04T07:36:38.081Z,232
2017-01-04T07:37:48.334Z,228
2017-01-04T07:38:58.587Z,248
2017-01-04T07:40:08.811Z,272
2017-01-04T07:41:19.071Z,312
2017-01-04T07:42:28.123Z,312
2017-01-04T07:43:38.533Z,308
2017-01-04T07:44:48.453Z,296
2017-01-04T07:45:58.693Z,300
2017-01-04T07:47:08.543Z,320
2017-01-04T07:48:18.367Z,400
2017-01-04T07:49:28.187Z,376
2017-01-04T07:50:38.478Z,464
2017-01-04T07:51:48.717Z,412
2017-01-04T07:52:58.688Z,404
2017-01-04T07:54:08.562Z,548
2017-01-04T07:55:18.408Z,472
2017-01-04T07:56:28.248Z,364
2017-01-04T07:57:37.687Z,308
2017-01-04T07:58:47.194Z,348
2017-01-04T07:59:57.441Z,432
2017-01-04T08:01:07.283Z,536
2017-01-04T08:02:17.130Z,620
2017-01-04T08:03:27.010Z,632
2017-01-04T08:04:37.122Z,688
2017-01-04T08:05:47.001Z,900
2017-01-04T08:06:57.282Z,1012
2017-01-04T08:08:07.598Z,1164
2017-01-04T08:09:17.437Z,1232
2017-01-04T08:10:27.305Z,1316
2017-01-04T08:11:37.563Z,1448
2017-01-04T08:12:47.399Z,1700
2017-01-04T08:13:56.858Z,1956
2017-01-04T08:15:07.194Z,2416
2017-01-04T08:16:17.497Z,3700
2017-01-04T08:17:27.352Z,4740
2017-01-04T08:18:37.334Z,3704
2017-01-04T08:19:47.328Z,2500
2017-01-04T08:20:58.154Z,2268
2017-01-04T08:22:08.299Z,2044
2017-01-04T08:23:18.249Z,1928
2017-01-04T08:24:27.707Z,1776
2017-01-04T08:25:37.931Z,1752
2017-01-04T08:26:47.813Z,1880
2017-01-04T08:27:57.242Z,1636
2017-01-04T08:29:07.497Z,1856
2017-01-04T08:30:17.398Z,2168
2017-01-04T08:31:27.658Z,2804
2017-01-04T08:32:37.551Z,3168
2017-01-04T08:33:47.968Z,3456
2017-01-04T08:34:57.796Z,3904
2017-01-04T08:36:08.039Z,3972
2017-01-04T08:37:17.873Z,3968
2017-01-04T08:38:28.120Z,3856
2017-01-04T08:39:38.383Z,4696
2017-01-04T08:40:48.248Z,5920
2017-01-04T08:41:57.694Z,6376
2017-01-04T08:43:07.927Z,6492
2017-01-04T08:44:17.394Z,6624
2017-01-04T08:45:27.625Z,6864
2017-01-04T08:46:37.918Z,5452
2017-01-04T08:47:47.787Z,6688
2017-01-04T08:48:58.015Z,7524
2017-01-04T08:50:07.562Z,7636
2017-01-04T08:51:17.794Z,6664
2017-01-04T08:52:28.237Z,7144
2017-01-04T08:53:37.707Z,5712
2017-01-04T08:54:47.134Z,4816
2017-01-04T08:55:57.056Z,4888
2017-01-04T08:57:07.337Z,5388
2017-01-04T08:58:17.639Z,6076
2017-01-04T08:59:27.893Z,6060
2017-01-04T09:00:38.121Z,5848
2017-01-04T09:01:48.478Z,5940
2017-01-04T09:02:58.330Z,7008
2017-01-04T09:04:08.207Z,8804
2017-01-04T09:05:18.456Z,10512
2017-01-04T09:06:28.696Z,12140
2017-01-04T09:07:38.260Z,10724
2017-01-04T09:08:48.554Z,8280
2017-01-04T09:09:58.381Z,6768
2017-01-04T09:11:08.264Z,6200
2017-01-04T09:12:18.552Z,5260
2017-01-04T09:13:28.410Z,5300
2017-01-04T09:14:38.736Z,5072
2017-01-04T09:15:49.003Z,4196
2017-01-04T09:16:59.087Z,4468
2017-01-04T09:18:08.936Z,4720
2017-01-04T09:19:18.791Z,4832
2017-01-04T09:20:29.062Z,4800
2017-01-04T09:21:39.390Z,4696
2017-01-04T09:22:48.943Z,4368
2017-01-04T09:23:59.176Z,3924
2017-01-04T09:25:09.087Z,3204
2017-01-04T09:26:18.571Z,2816
2017-01-04T09:27:28.839Z,2844
2017-01-04T09:28:38.704Z,3176
2017-01-04T09:29:49.014Z,3616
2017-01-04T09:30:58.448Z,4004
2017-01-04T09:32:07.484Z,4096
2017-01-04T09:33:17.768Z,3980
2017-01-04T09:34:28.055Z,3828
2017-01-04T09:35:37.887Z,3812
2017-01-04T09:36:48.134Z,4024
2017-01-04T09:37:58.416Z,4248
2017-01-04T09:39:08.736Z,4508
2017-01-04T09:40:19.013Z,4848
2017-01-04T09:41:28.840Z,5260
2017-01-04T09:42:38.674Z,5740
2017-01-04T09:43:48.556Z,6356
2017-01-04T09:44:57.644Z,7036
2017-01-04T09:46:07.930Z,7596
2017-01-04T09:47:17.373Z,7728
2017-01-04T09:48:27.645Z,8080
2017-01-04T09:49:37.941Z,7984
2017-01-04T09:50:48.275Z,8200
2017-01-04T09:51:58.362Z,8452
2017-01-04T09:53:08.612Z,8616
2017-01-04T09:54:18.448Z,8988
2017-01-04T09:55:28.279Z,9112
2017-01-04T09:56:38.121Z,8936
2017-01-04T09:57:48.015Z,8880
2017-01-04T09:58:58.320Z,9040
2017-01-04T10:00:08.165Z,8968
2017-01-04T10:01:18.429Z,9020
2017-01-04T10:02:28.269Z,8920
2017-01-04T10:03:38.139Z,8360
2017-01-04T10:04:48.077Z,8280
2017-01-04T10:05:57.905Z,8416
2017-01-04T10:07:07.748Z,8412
2017-01-04T10:08:17.571Z,8548
2017-01-04T10:09:27.807Z,8788
2017-01-04T10:11:09.482Z,8252
2017-01-04T10:12:19.400Z,8916
2017-01-04T10:13:29.725Z,7792
2017-01-04T10:14:40.005Z,7224
2017-01-04T10:15:49.890Z,8896
2017-01-04T10:17:00.127Z,9992
2017-01-04T10:18:09.968Z,8216
2017-01-04T10:19:20.258Z,8552
2017-01-04T10:20:29.746Z,8456
2017-01-04T10:21:39.983Z,8716
2017-01-04T10:22:49.858Z,9052
2017-01-04T10:24:00.158Z,10144
2017-01-04T10:25:10.209Z,13688
2017-01-04T10:26:20.481Z,14252
2017-01-04T10:27:30.737Z,15488
2017-01-04T10:28:41.107Z,13024
2017-01-04T10:29:50.985Z,13768
2017-01-04T10:31:00.430Z,14888
2017-01-04T10:32:10.687Z,16288
2017-01-04T10:33:20.639Z,12552
2017-01-04T10:34:30.900Z,17056
2017-01-04T10:35:40.726Z,16864
2017-01-04T10:36:51.077Z,15968
2017-01-04T10:38:00.948Z,11832
2017-01-04T10:39:10.839Z,15424
2017-01-04T10:40:21.127Z,17888
2017-01-04T10:41:31.429Z,17824
2017-01-04T10:42:41.267Z,16320
2017-01-04T10:43:51.511Z,14016
2017-01-04T10:45:01.632Z,13616
2017-01-04T10:46:12.002Z,13468
2017-01-04T10:47:21.476Z,13832
2017-01-04T10:48:31.711Z,17600
2017-01-04T10:49:41.949Z,18176
2017-01-04T10:50:51.805Z,20384
2017-01-04T10:52:01.244Z,14096
2017-01-04T10:53:11.477Z,14920
2017-01-04T10:54:20.926Z,21312
2017-01-04T10:55:30.788Z,18592
2017-01-04T10:56:41.119Z,13284
2017-01-04T10:57:51.369Z,10976
2017-01-04T10:59:01.269Z,8076
2017-01-04T11:00:11.597Z,7364
2017-01-04T11:01:21.609Z,6908
2017-01-04T11:02:31.869Z,6772
2017-01-04T11:03:41.305Z,7152
2017-01-04T11:04:51.180Z,7032
2017-01-04T11:06:01.431Z,6296
2017-01-04T11:07:11.728Z,5640
2017-01-04T11:08:21.965Z,5136
2017-01-04T11:09:31.837Z,4628
2017-01-04T11:10:41.758Z,4300
2017-01-04T11:11:51.624Z,3776
2017-01-04T11:13:01.882Z,3192
2017-01-04T11:14:12.159Z,2852
2017-01-04T11:15:22.096Z,3008
2017-01-04T11:16:31.544Z,2844
2017-01-04T11:17:41.924Z,1916
2017-01-04T11:18:52.163Z,1340
2017-01-04T11:20:01.600Z,1384
2017-01-04T11:21:11.910Z,1476
2017-01-04T11:22:22.161Z,1440
2017-01-04T11:23:32.025Z,1640
2017-01-04T11:24:42.280Z,2124
2017-01-04T11:25:52.179Z,2872
2017-01-04T11:27:02.439Z,3520
2017-01-04T11:28:12.322Z,4008
2017-01-04T11:29:22.581Z,4620
2017-01-04T11:30:32.835Z,4960
2017-01-04T11:31:42.268Z,4560
2017-01-04T11:32:52.109Z,5104
2017-01-04T11:34:01.955Z,4792
2017-01-04T11:35:12.260Z,4212
2017-01-04T11:36:22.508Z,3256
2017-01-04T11:37:32.811Z,2528
2017-01-04T11:38:43.155Z,1972
2017-01-04T11:39:53.027Z,1092
2017-01-04T11:41:03.352Z,688
2017-01-04T11:42:13.304Z,804
2017-01-04T11:43:22.731Z,900
2017-01-04T11:44:32.966Z,1104
2017-01-04T11:45:43.221Z,1680
2017-01-04T11:46:53.190Z,2024
2017-01-04T11:48:03.421Z,2312
2017-01-04T11:49:13.749Z,3080
2017-01-04T11:50:23.200Z,3008
2017-01-04T11:51:33.061Z,3228
2017-01-04T11:52:42.518Z,3452
2017-01-04T11:53:52.377Z,3256
2017-01-04T11:55:02.649Z,3400
2017-01-04T11:56:12.497Z,3308
2017-01-04T11:57:22.394Z,2164
2017-01-04T11:58:32.630Z,2508
2017-01-04T11:59:42.921Z,2164
2017-01-04T12:00:53.176Z,2264
2017-01-04T12:02:03.409Z,2528
2017-01-04T12:03:13.244Z,2336
2017-01-04T12:04:23.146Z,2672
2017-01-04T12:05:33.637Z,2572
2017-01-04T12:06:43.868Z,2352
2017-01-04T12:07:54.150Z,1904
2017-01-04T12:09:04.415Z,2228
2017-01-04T12:10:14.716Z,2076
2017-01-04T12:11:24.579Z,1916
2017-01-04T12:12:34.462Z,1976
2017-01-04T12:13:44.423Z,1884
2017-01-04T12:14:54.276Z,1708
2017-01-04T12:16:03.802Z,1548
2017-01-04T12:17:13.240Z,1544
2017-01-04T12:18:22.765Z,1172
2017-01-04T12:19:32.625Z,1176
2017-01-04T12:20:42.440Z,1268
2017-01-04T12:21:52.280Z,1400
2017-01-04T12:23:02.552Z,1520
2017-01-04T12:24:12.407Z,1788
2017-01-04T12:25:22.232Z,2544
2017-01-04T12:26:32.198Z,2852
2017-01-04T12:27:42.091Z,2940
2017-01-04T12:28:52.386Z,3256
2017-01-04T12:30:02.699Z,3632
2017-01-04T12:31:12.129Z,5416
2017-01-04T12:32:22.025Z,7448
2017-01-04T12:33:32.270Z,10068
2017-01-04T12:34:42.116Z,6840
2017-01-04T12:35:52.410Z,6556
2017-01-04T12:37:02.705Z,7144
2017-01-04T12:38:12.989Z,6188
2017-01-04T12:39:23.232Z,3912
2017-01-04T12:40:33.506Z,4012
2017-01-04T12:41:43.744Z,5404
2017-01-04T12:42:54.043Z,5172
2017-01-04T12:44:04.332Z,4536
2017-01-04T12:45:13.845Z,4780
2017-01-04T12:46:23.836Z,4300
2017-01-04T12:47:34.082Z,4204
2017-01-04T12:48:44.348Z,6988
2017-01-04T12:49:54.207Z,8208
2017-01-04T12:51:04.492Z,9684
2017-01-04T12:52:13.970Z,9032
2017-01-04T12:53:23.841Z,5908
2017-01-04T12:54:32.951Z,5524
2017-01-04T12:55:42.442Z,4700
2017-01-04T12:56:52.723Z,5908
2017-01-04T12:58:03.025Z,4224
2017-01-04T12:59:13.272Z,5276
2017-01-04T13:00:23.543Z,5044
2017-01-04T13:01:33.787Z,3592
2017-01-04T13:02:43.686Z,4352
2017-01-04T13:03:53.947Z,4536
2017-01-04T13:05:03.416Z,6488
2017-01-04T13:06:13.668Z,5956
2017-01-04T13:07:24.032Z,6380
2017-01-04T13:08:33.496Z,9740
2017-01-04T13:09:43.361Z,10224
2017-01-04T13:10:52.819Z,7688
2017-01-04T13:12:02.673Z,6504
2017-01-04T13:13:12.691Z,7928
2017-01-04T13:14:22.616Z,9916
2017-01-04T13:15:32.453Z,8100
2017-01-04T13:16:42.693Z,6624
2017-01-04T13:17:52.619Z,9416
2017-01-04T13:19:02.489Z,8632
2017-01-04T13:20:12.333Z,10028
2017-01-04T13:21:22.612Z,8912
2017-01-04T13:22:32.496Z,8952
2017-01-04T13:23:42.582Z,6712
2017-01-04T13:24:52.837Z,7420
2017-01-04T13:26:02.688Z,5416
2017-01-04T13:27:13.054Z,4636
2017-01-04T13:28:23.371Z,4920
2017-01-04T13:29:33.633Z,5528
2017-01-04T13:30:43.531Z,7016
2017-01-04T13:31:53.465Z,6388
2017-01-04T13:33:03.722Z,5356
2017-01-04T13:34:14.007Z,6736
2017-01-04T13:35:23.842Z,6356
2017-01-04T13:36:34.359Z,4972
2017-01-04T13:37:44.768Z,4584
2017-01-04T13:38:54.317Z,3808
2017-01-04T13:40:04.265Z,3508
2017-01-04T13:41:13.733Z,3720
2017-01-04T13:42:23.982Z,6472
2017-01-04T13:43:33.809Z,3720
2017-01-04T13:44:44.057Z,3772
2017-01-04T13:45:54.333Z,3724
2017-01-04T13:47:04.312Z,3992
2017-01-04T13:48:14.613Z,4592
2017-01-04T13:49:24.905Z,5760
2017-01-04T13:50:34.799Z,9156
2017-01-04T13:51:45.085Z,8980
2017-01-04T13:52:54.937Z,8048
2017-01-04T13:54:04.876Z,8336
2017-01-04T13:55:15.102Z,7040
2017-01-04T13:56:25.426Z,4552
2017-01-04T13:57:35.287Z,4820
2017-01-04T13:58:45.548Z,3132
2017-01-04T13:59:55.816Z,2456
2017-01-04T14:01:04.853Z,2356
2017-01-04T14:02:15.175Z,3732
2017-01-04T14:03:25.406Z,4712
2017-01-04T14:04:35.305Z,4808
2017-01-04T14:05:45.170Z,3864
2017-01-04T14:06:55.514Z,3196
2017-01-04T14:08:05.779Z,2792
2017-01-04T14:09:15.717Z,3156
2017-01-04T14:10:25.986Z,4356
2017-01-04T14:11:36.221Z,4784
2017-01-04T14:12:46.496Z,3068
2017-01-04T14:13:56.845Z,2488
2017-01-04T14:15:06.708Z,1796
2017-01-04T14:16:16.570Z,1536
2017-01-04T14:17:26.835Z,1536
2017-01-04T14:18:37.178Z,1516
2017-01-04T14:19:47.413Z,1552
2017-01-04T14:20:57.282Z,1692
2017-01-04T14:22:07.554Z,1672
2017-01-04T14:23:17.852Z,1940
2017-01-04T14:24:28.141Z,1824
2017-01-04T14:25:38.442Z,2016
2017-01-04T14:26:47.930Z,2756
2017-01-04T14:27:57.817Z,2380
2017-01-04T14:29:08.079Z,1528
2017-01-04T14:30:18.308Z,1248
2017-01-04T14:31:28.577Z,1688
2017-01-04T14:32:38.909Z,2580
2017-01-04T14:33:49.156Z,2360
2017-01-04T14:34:59.400Z,2088
2017-01-04T14:36:09.319Z,1824
2017-01-04T14:37:19.146Z,1576
2017-01-04T14:38:29.008Z,1484
2017-01-04T14:39:38.857Z,1920
2017-01-04T14:40:48.704Z,1672
2017-01-04T14:41:59.033Z,1452
2017-01-04T14:43:09.022Z,1212
2017-01-04T14:44:18.860Z,1308
2017-01-04T14:45:29.213Z,1360
2017-01-04T14:46:39.546Z,1116
2017-01-04T14:47:49.793Z,1020
2017-01-04T14:48:59.690Z,1020
2017-01-04T14:50:09.928Z,1028
2017-01-04T14:51:19.461Z,836
2017-01-04T14:52:29.941Z,872
2017-01-04T14:53:40.288Z,960
2017-01-04T14:54:50.662Z,1240
2017-01-04T14:56:00.522Z,1584
2017-01-04T14:57:09.991Z,1900
2017-01-04T14:58:19.922Z,2360
2017-01-04T14:59:29.931Z,1552
2017-01-04T15:00:40.167Z,840
2017-01-04T15:01:50.008Z,264
2017-01-04T15:02:59.854Z,108
2017-01-04T15:04:08.907Z,72
2017-01-04T15:05:18.738Z,60
2017-01-04T15:06:28.293Z,36
2017-01-04T15:07:38.598Z,32
2017-01-04T15:08:49.007Z,40
2017-01-04T15:09:59.325Z,40
2017-01-04T15:11:09.258Z,40
2017-01-04T15:12:19.755Z,28
2017-01-04T15:13:30.094Z,28
2017-01-04T15:14:40.170Z,16
2017-01-04T15:15:50.520Z,16
2017-01-04T15:17:00.888Z,12
2017-01-04T15:18:10.464Z,8
2017-01-04T15:19:20.298Z,8
2017-01-04T15:20:30.151Z,8
2017-01-04T15:21:39.674Z,4
2017-01-04T15:22:49.993Z,4
2017-01-04T15:24:00.546Z,4
2017-01-04T15:25:10.102Z,4
2017-01-04T15:26:20.029Z,4
2017-01-04T15:27:30.363Z,12
2017-01-04T15:28:40.712Z,12
2017-01-04T15:29:50.218Z,8
2017-01-04T15:31:00.638Z,16
2017-01-04T15:32:10.992Z,20
2017-01-04T15:33:21.277Z,24
2017-01-04T15:34:31.221Z,20
2017-01-04T15:35:41.695Z,24
2017-01-04T15:36:51.739Z,20
2017-01-04T15:38:02.352Z,16
2017-01-04T15:39:12.316Z,12
2017-01-04T15:40:22.831Z,12
2017-01-04T15:41:33.076Z,8
2017-01-04T15:42:43.215Z,8
2017-01-04T15:43:53.276Z,4
2017-01-04T15:45:03.875Z,8
2017-01-04T15:46:14.248Z,4
2017-01-04T15:47:23.876Z,4
2017-01-04T15:48:34.188Z,0
2017-01-04T15:49:44.278Z,4
2017-01-04T15:50:55.130Z,0
2017-01-04T15:52:06.219Z,4
2017-01-04T15:53:16.664Z,0
2017-01-04T15:54:27.273Z,0
2017-01-04T15:55:37.824Z,0
2017-01-04T15:56:47.968Z,0
2017-01-04T15:57:58.547Z,0
2017-01-04T15:59:09.645Z,0
2017-01-04T16:00:19.648Z,0
2017-01-04T16:01:30.216Z,0
2017-01-04T16:02:40.473Z,0
2017-01-04T16:03:50.906Z,0
2017-01-04T16:05:01.336Z,0
2017-01-04T16:06:11.486Z,0
2017-01-04T16:07:21.485Z,0
2017-01-04T16:08:31.244Z,0
2017-01-04T16:09:41.558Z,0
2017-01-04T16:10:51.631Z,0
2017-01-04T16:12:02.161Z,0
2017-01-04T16:13:13.063Z,0
2017-01-04T16:14:23.225Z,0
2017-01-04T16:15:34.010Z,0
2017-01-04T16:16:44.693Z,0
2017-01-04T16:17:55.724Z,0
2017-01-04T16:19:06.460Z,0
2017-01-04T16:20:17.281Z,0
2017-01-04T16:21:28.512Z,0
2017-01-04T16:22:39.250Z,0
2017-01-04T16:23:50.754Z,0